Погода Бондарина неделю

Гродненская область, Белоруссия

25 - 31 мая
  • 25мая
    Сегодня
    +13°
    +23°
    Облачно с прояснениями, ливень
    ВремяПогодаТемператураВлажностьДавлениеВетер, м/сВероятность осадков
    00:00Ясно и безоблачно+18°C71 %755 мм4.0 м/с2 %
    03:00Практически безоблачно+16°C71 %755 мм4.7 м/с2 %
    06:00Небольшая облачность+15°C70 %755 мм4.3 м/с2 %
    09:00Облачно с прояснениями+18°C63 %755 мм4.1 м/с2 %
    12:00Облачно с прояснениями+23°C52 %755 мм4.1 м/с12 %
    15:00Облачно с прояснениями, ливень+23°C59 %755 мм4.6 м/с66 %
    18:00Облачно с прояснениями+21°C65 %754 мм3.1 м/с44 %
    21:00Облачно с прояснениями+20°C75 %754 мм2.0 м/с15 %
  • 26мая
    Воскресенье
    +11°
    +26°
    Ясно и безоблачно
    ВремяПогодаТемператураВлажностьДавлениеВетер, м/сВероятность осадков
    00:00Облачно с прояснениями+16°C85 %754 мм3.2 м/с14 %
    03:00Облачно с прояснениями+15°C61 %754 мм3.8 м/с13 %
    06:00Пасмурно, сплошная облачность+13°C76 %754 мм1.9 м/с39 %
    09:00Небольшая облачность+18°C61 %755 мм3.0 м/с9 %
    12:00Ясно и безоблачно+24°C37 %755 мм3.5 м/с2 %
    15:00Ясно и безоблачно+25°C34 %755 мм3.6 м/с2 %
    18:00Ясно и безоблачно+25°C35 %754 мм3.0 м/с2 %
    21:00Ясно и безоблачно+20°C57 %754 мм2.8 м/с2 %
  • 27мая
    Понедельник
    +13°
    +26°
    Облачно с прояснениями
    ВремяПогодаТемператураВлажностьДавлениеВетер, м/сВероятность осадков
    00:00Ясно и безоблачно+16°C61 %755 мм2.5 м/с2 %
    03:00Небольшая облачность+12°C78 %755 мм2.0 м/с2 %
    06:00Практически безоблачно+13°C70 %755 мм2.5 м/с2 %
    09:00Небольшая облачность+20°C58 %755 мм2.2 м/с2 %
    12:00Облачно с прояснениями+24°C38 %755 мм3.8 м/с2 %
    15:00Облачно с прояснениями+26°C31 %755 мм4.0 м/с2 %
    18:00Небольшая облачность+25°C35 %754 мм2.9 м/с2 %
    21:00Облачно с прояснениями+20°C63 %753 мм2.3 м/с2 %
  • 28мая
    Вторник
    +14°
    +26°
    Ясно и безоблачно
    ВремяПогодаТемператураВлажностьДавлениеВетер, м/сВероятность осадков
    00:00Облачно с прояснениями+14°C71 %753 мм1.9 м/с2 %
    03:00Небольшая облачность+14°C72 %753 мм2.3 м/с2 %
    06:00Ясно и безоблачно+14°C68 %752 мм2.9 м/с2 %
    09:00Ясно и безоблачно+21°C58 %753 мм2.6 м/с2 %
    12:00Практически безоблачно+25°C35 %752 мм3.7 м/с5 %
    15:00Ясно и безоблачно+26°C34 %751 мм3.6 м/с28 %
    18:00Ясно и безоблачно+26°C36 %751 мм2.7 м/с38 %
    21:00Ясно и безоблачно+21°C65 %750 мм3.9 м/с14 %
  • 29мая
    Среда
    +14°
    +28°
    Практически безоблачно
    ВремяПогодаТемператураВлажностьДавлениеВетер, м/сВероятность осадков
    00:00Ясно и безоблачно+17°C79 %750 мм3.5 м/с3 %
    03:00Ясно и безоблачно+16°C83 %750 мм3.4 м/с2 %
    06:00Практически безоблачно+16°C81 %749 мм3.3 м/с2 %
    09:00Ясно и безоблачно+21°C65 %749 мм2.6 м/с2 %
    12:00Практически безоблачно+26°C42 %749 мм3.1 м/с13 %
    15:00Практически безоблачно+27°C29 %748 мм3.5 м/с34 %
    18:00Ясно и безоблачно+26°C32 %747 мм2.8 м/с28 %
    21:00Практически безоблачно+21°C53 %747 мм3.9 м/с5 %
Мы используем cookies
Соглашаюсь